Main page
METAR-TAF:

METAR-TAF

Airports :

Waddington, England

RAF Waddington

latitude: 53-10N, longitude: 000-31W, elevation: 68 m

Current weather observation

The report was made 23 minutes ago, at 08:50 UTC
Wind 6 kt from the East/Northeast
Temperature 9°C
Humidity 66%
Pressure 1027 hPa
Visibility 10 km or more
no clouds below 1500 m and no cumulonimbus

METAR: EGXW 260850Z 07006KT CAVOK 09/03 Q1027 BLU NOSIG

Time: 10:13 (09:13 UTC)

Forecast

The report was made 1 hour and 49 minutes ago, at 07:24 UTC
Forecast valid from 26 at 09 UTC to 27 at 03 UTC
Wind 10 kt from the East/Northeast
Visibility 10 km or more
Few clouds at a height of 3000 ft
Becoming
from 26 at 18 UTC to 26 at 21 UTC
Broken clouds at a height of 1800 ft
Probability 30% :
Temporary
from 27 at 00 UTC to 27 at 03 UTC
Visibility: 4000 m
Broken clouds at a height of 400 ft
mist

TAF: EGXW 260724Z 2609/2703 06010KT 9999 FEW030 BECMG 2618/2621 BKN018 PROB30 TEMPO 2700/2703 4000 BR BKN004

Weather observations and forecasts of more than 4000 airports (METAR and TAF reports).

The available stations are represented by yellow and red dots on the map.

Hover mouse over dot to see the name of the station.

Then click to see weather observations and forecasts.

To change the map : click on the green buttons with a black cross to zoom in, on the green button with a dash to zoom out, or on the green arrows for adjacent maps.


METAR-TAF: